Terminal Aerodrome Forecast
Issued by NWS New Orleans/Baton Rouge, LA

Home | Current Version | Previous Version | Text Only | Print | Product List | Glossary On
Versions: 1 2 3 4 5 6 7 8 9 10 11 12 13 14 15 16 17
000
FTUS44 KLIX 241410 AAA
TAFNEW
TAF AMD
KNEW 241410Z 2414/2512 14015G25KT P6SM SCT020 BKN250
     FM241600 14016G24KT P6SM BKN035
     FM250300 14014G27KT P6SM BKN020
     FM250500 15013G27KT P6SM OVC015 PROB30 2509/2512 4SM TSRA
      OVC007CB=

USA.gov is the U.S. government's official web portal to all federal, state and local government web resources and services.